Time;durP1;ratioP1;P1;durP2;ratioP2;P2;SDS_P1;SDS_P2;PMS_P1;PMS_P2;Temp;Humidity;BMP_temperature;BMP_pressure;BME280_temperature;BME280_humidity;BME280_pressure;Samples;Min_cycle;Max_cycle;Signal;HPM_P1;HPM_P2
2023/08/19 00:00:59;;;;;;;12.43;9.30;;;22.90;99.90;;;;;;5001322;28;20042;-59
2023/08/19 00:03:24;;;;;;;10.32;8.75;;;23.00;99.90;;;;;;5004531;28;20494;-60
2023/08/19 00:05:51;;;;;;;11.57;8.82;;;23.00;99.90;;;;;;5005597;28;20030;-59
2023/08/19 00:08:17;;;;;;;13.30;8.52;;;23.00;99.90;;;;;;5003066;28;20034;-59
2023/08/19 00:10:43;;;;;;;10.63;8.48;;;23.00;99.90;;;;;;5004935;28;20042;-59
2023/08/19 00:13:09;;;;;;;9.90;8.50;;;23.10;99.90;;;;;;4994992;28;20522;-58
2023/08/19 00:15:35;;;;;;;12.80;8.45;;;23.00;99.90;;;;;;5004769;28;20484;-58
2023/08/19 00:18:01;;;;;;;10.70;8.45;;;23.00;99.90;;;;;;5003188;28;20062;-58
2023/08/19 00:20:28;;;;;;;10.68;8.10;;;22.90;99.90;;;;;;5003044;28;20034;-58
2023/08/19 00:22:56;;;;;;;10.20;8.02;;;22.90;99.90;;;;;;4995913;28;20030;-58
2023/08/19 00:25:22;;;;;;;9.63;7.97;;;23.00;99.90;;;;;;5002430;28;20143;-58
2023/08/19 00:27:47;;;;;;;10.60;7.88;;;22.90;99.90;;;;;;5003328;28;20577;-58
2023/08/19 00:30:13;;;;;;;9.93;7.97;;;22.90;99.90;;;;;;5003295;28;20037;-58
2023/08/19 00:32:40;;;;;;;12.68;8.07;;;22.90;99.90;;;;;;5005311;28;20394;-56
2023/08/19 00:35:06;;;;;;;7.78;6.97;;;22.90;99.90;;;;;;5005283;28;20466;-57
2023/08/19 00:37:32;;;;;;;12.00;7.90;;;22.80;99.90;;;;;;4976276;28;1062792;-57
2023/08/19 00:39:58;;;;;;;10.50;6.95;;;22.80;99.90;;;;;;5000571;28;20026;-58
2023/08/19 00:42:24;;;;;;;9.18;7.00;;;22.80;99.90;;;;;;5019352;28;20040;-58
2023/08/19 00:44:49;;;;;;;12.38;7.53;;;22.80;99.90;;;;;;5025171;28;20029;-58
2023/08/19 00:47:15;;;;;;;9.13;6.60;;;22.80;99.90;;;;;;5006109;28;20049;-58
2023/08/19 00:49:42;;;;;;;7.85;6.90;;;22.80;99.90;;;;;;5020611;28;20310;-58
2023/08/19 00:52:07;;;;;;;8.10;7.07;;;22.80;99.90;;;;;;5012477;28;20461;-58
2023/08/19 00:54:33;;;;;;;8.70;6.55;;;22.80;99.90;;;;;;5012497;28;20119;-57
2023/08/19 00:56:59;;;;;;;9.70;6.75;;;22.80;99.90;;;;;;4999749;28;20536;-58
2023/08/19 00:59:26;;;;;;;9.68;6.60;;;22.80;99.90;;;;;;5018871;28;20045;-58
2023/08/19 01:01:52;;;;;;;10.95;7.03;;;22.70;99.90;;;;;;5020061;28;20047;-58
2023/08/19 01:04:17;;;;;;;10.07;7.10;;;22.70;99.90;;;;;;5024720;28;20030;-58
2023/08/19 01:07:10;;;;;;;8.65;6.57;;;22.60;99.90;;;;;;5010206;28;20516;-58
2023/08/19 01:09:55;;;;;;;12.43;6.45;;;22.60;99.90;;;;;;5002639;28;20053;-57
2023/08/19 01:12:51;;;;;;;8.23;6.32;;;22.60;99.90;;;;;;5012086;28;20037;-58
2023/08/19 01:15:21;;;;;;;10.35;5.90;;;22.50;99.90;;;;;;5019743;28;20030;-57
2023/08/19 01:17:51;;;;;;;12.77;6.30;;;22.70;99.90;;;;;;5005188;28;20729;-58
2023/08/19 01:20:18;;;;;;;10.70;6.53;;;22.60;99.90;;;;;;5008607;28;20029;-58
2023/08/19 01:22:55;;;;;;;7.72;6.18;;;22.60;99.90;;;;;;5012392;28;20034;-58
2023/08/19 01:25:22;;;;;;;9.23;6.35;;;22.60;99.90;;;;;;5008178;28;20465;-59
2023/08/19 01:27:48;;;;;;;8.40;5.80;;;22.50;99.90;;;;;;5019709;28;20030;-59
2023/08/19 01:30:14;;;;;;;9.90;6.07;;;22.50;99.90;;;;;;5004608;28;20548;-59
2023/08/19 01:32:41;;;;;;;10.88;6.30;;;22.50;99.90;;;;;;5008055;28;20554;-58
2023/08/19 01:35:08;;;;;;;8.77;5.70;;;22.50;99.90;;;;;;5001947;28;20087;-59
2023/08/19 01:37:47;;;;;;;11.13;5.50;;;22.50;99.90;;;;;;5006927;28;21284;-59
2023/08/19 01:40:14;;;;;;;9.85;5.93;;;22.40;99.90;;;;;;5002744;28;20030;-58
2023/08/19 01:42:41;;;;;;;9.85;5.28;;;22.40;99.90;;;;;;5001868;28;20168;-60
2023/08/19 01:45:08;;;;;;;10.38;5.70;;;22.30;99.90;;;;;;5012547;28;20465;-59
2023/08/19 01:47:42;;;;;;;9.57;5.35;;;22.30;99.90;;;;;;5004428;28;20095;-59
2023/08/19 01:50:08;;;;;;;7.75;5.57;;;22.30;99.90;;;;;;5003996;28;20045;-59
2023/08/19 01:52:35;;;;;;;9.25;5.75;;;22.30;99.90;;;;;;5001253;28;20033;-59
2023/08/19 01:55:01;;;;;;;7.82;5.70;;;22.30;99.90;;;;;;5009804;28;20328;-59
2023/08/19 01:57:27;;;;;;;8.65;5.45;;;22.20;99.90;;;;;;5012765;28;20037;-59
2023/08/19 01:59:54;;;;;;;8.25;6.00;;;22.20;99.90;;;;;;5017055;28;20031;-59
2023/08/19 02:02:23;;;;;;;11.20;5.85;;;22.20;99.90;;;;;;5003586;28;20038;-59
2023/08/19 02:04:49;;;;;;;10.00;5.80;;;22.20;99.90;;;;;;5002551;28;20451;-57
2023/08/19 02:07:15;;;;;;;11.20;5.85;;;22.20;99.90;;;;;;5003033;28;20076;-59
2023/08/19 02:09:41;;;;;;;11.90;5.97;;;22.10;99.90;;;;;;5000855;28;20482;-59
2023/08/19 02:12:07;;;;;;;8.02;5.75;;;22.10;99.90;;;;;;5002330;28;20068;-59
2023/08/19 02:14:33;;;;;;;9.48;5.95;;;22.10;99.90;;;;;;5002682;28;20045;-59
2023/08/19 02:16:59;;;;;;;12.40;5.88;;;22.10;99.90;;;;;;5003238;28;20128;-58
2023/08/19 02:19:25;;;;;;;7.15;5.45;;;22.10;99.90;;;;;;5004177;28;20132;-58
2023/08/19 02:21:50;;;;;;;11.88;6.13;;;22.10;99.90;;;;;;5004697;28;20551;-59
2023/08/19 02:24:16;;;;;;;7.75;5.53;;;22.20;99.90;;;;;;5004749;28;20038;-59
2023/08/19 02:26:41;;;;;;;9.07;5.45;;;22.10;99.90;;;;;;5004411;28;20120;-59
2023/08/19 02:29:07;;;;;;;8.93;5.47;;;22.20;99.90;;;;;;5003140;28;20489;-59
2023/08/19 02:31:32;;;;;;;8.32;5.38;;;22.20;99.90;;;;;;5004439;28;20037;-58
2023/08/19 02:33:58;;;;;;;8.55;5.50;;;22.10;99.90;;;;;;5004515;28;20026;-58
2023/08/19 02:36:24;;;;;;;10.75;5.95;;;22.10;99.90;;;;;;5004187;28;20038;-57
2023/08/19 02:38:49;;;;;;;10.60;5.53;;;22.10;99.90;;;;;;5003455;28;20034;-57
2023/08/19 02:41:15;;;;;;;12.90;6.18;;;22.00;99.90;;;;;;5003849;28;20072;-57
2023/08/19 02:43:40;;;;;;;9.98;5.75;;;22.20;99.90;;;;;;5004324;28;20038;-57
2023/08/19 02:46:06;;;;;;;10.75;6.13;;;22.20;99.90;;;;;;5003458;28;20030;-57
2023/08/19 02:48:31;;;;;;;10.38;6.03;;;22.20;99.90;;;;;;5004912;28;20416;-57
2023/08/19 02:50:57;;;;;;;10.55;6.10;;;22.20;99.90;;;;;;5004163;28;20037;-56
2023/08/19 02:53:23;;;;;;;9.10;5.78;;;22.10;99.90;;;;;;5003673;28;20194;-58
2023/08/19 02:55:54;;;;;;;10.88;5.55;;;22.20;99.90;;;;;;5004300;28;20053;-58
2023/08/19 02:58:20;;;;;;;8.40;5.38;;;22.30;99.90;;;;;;5003461;28;20045;-58
2023/08/19 03:00:47;;;;;;;9.60;5.78;;;22.20;99.90;;;;;;5003315;28;20072;-58
2023/08/19 03:03:13;;;;;;;8.88;5.15;;;22.20;99.90;;;;;;5021941;28;20034;-57
2023/08/19 03:05:39;;;;;;;8.55;5.35;;;22.20;99.90;;;;;;5024023;28;20354;-58
2023/08/19 03:08:06;;;;;;;10.80;6.00;;;22.20;99.90;;;;;;5022826;28;20030;-57
2023/08/19 03:10:35;;;;;;;11.25;5.70;;;22.20;99.90;;;;;;5023943;28;20540;-57
2023/08/19 03:13:02;;;;;;;12.00;5.85;;;22.30;99.90;;;;;;5022961;28;20029;-58
2023/08/19 03:15:27;;;;;;;11.65;5.65;;;22.30;99.90;;;;;;5023315;28;20034;-58
2023/08/19 03:17:53;;;;;;;9.38;5.60;;;22.40;99.90;;;;;;5024165;28;20030;-57
2023/08/19 03:20:18;;;;;;;8.50;5.72;;;22.40;99.90;;;;;;5023150;28;20048;-58
2023/08/19 03:22:44;;;;;;;9.13;6.00;;;22.40;99.90;;;;;;5021764;28;20041;-58
2023/08/19 03:25:10;;;;;;;10.25;5.68;;;22.40;99.90;;;;;;5023002;28;20645;-58
2023/08/19 03:27:36;;;;;;;7.85;5.13;;;22.40;99.90;;;;;;5023973;28;20030;-59
2023/08/19 03:30:04;;;;;;;9.50;5.72;;;22.40;99.90;;;;;;5023472;28;20043;-59
2023/08/19 03:32:30;;;;;;;8.85;5.43;;;22.40;99.90;;;;;;5025442;28;20056;-59
2023/08/19 03:34:55;;;;;;;7.47;4.90;;;22.40;99.90;;;;;;5026128;28;20026;-58
2023/08/19 03:37:21;;;;;;;9.50;5.30;;;22.30;99.90;;;;;;5026165;28;20049;-59
2023/08/19 03:39:47;;;;;;;8.60;4.97;;;22.40;99.90;;;;;;5027260;28;20037;-59
2023/08/19 03:42:12;;;;;;;8.85;5.32;;;22.40;99.90;;;;;;5026890;28;20036;-59
2023/08/19 03:44:38;;;;;;;7.10;5.18;;;22.40;99.90;;;;;;5013186;28;20512;-59
2023/08/19 03:47:04;;;;;;;11.70;5.65;;;22.40;99.90;;;;;;5002978;28;20125;-58
2023/08/19 03:49:29;;;;;;;10.40;5.07;;;22.30;99.90;;;;;;5007027;28;20048;-60
2023/08/19 03:51:55;;;;;;;7.93;4.82;;;22.40;99.90;;;;;;5006763;28;20417;-58
2023/08/19 03:54:20;;;;;;;7.10;5.03;;;22.40;99.90;;;;;;5006185;28;20038;-59
2023/08/19 03:56:46;;;;;;;7.63;4.95;;;22.40;99.90;;;;;;5016020;28;20468;-59
2023/08/19 03:59:12;;;;;;;8.70;5.15;;;22.40;99.90;;;;;;5015243;28;20026;-59
2023/08/19 04:01:39;;;;;;;9.45;5.40;;;22.40;99.90;;;;;;5018146;28;20713;-59
2023/08/19 04:04:06;;;;;;;6.90;4.60;;;22.40;99.90;;;;;;5009455;28;20108;-59
2023/08/19 04:06:32;;;;;;;7.63;5.20;;;22.40;99.90;;;;;;5004914;28;20526;-58
2023/08/19 04:08:58;;;;;;;7.40;4.68;;;22.40;99.90;;;;;;5006693;28;20102;-58
2023/08/19 04:11:24;;;;;;;9.07;5.07;;;22.50;99.90;;;;;;5015010;28;20121;-58
2023/08/19 04:13:49;;;;;;;10.02;5.25;;;22.50;99.90;;;;;;5013496;28;20029;-60
2023/08/19 04:16:15;;;;;;;7.28;4.80;;;22.50;99.90;;;;;;5012383;28;20022;-59
2023/08/19 04:18:40;;;;;;;8.73;4.72;;;22.50;99.90;;;;;;5001096;28;20108;-58
2023/08/19 04:21:08;;;;;;;8.90;4.38;;;22.50;99.90;;;;;;5016144;28;20048;-59
2023/08/19 04:23:34;;;;;;;9.25;4.53;;;22.50;99.90;;;;;;5010538;28;20035;-59
2023/08/19 04:26:00;;;;;;;9.18;4.43;;;22.50;99.90;;;;;;5007223;28;20033;-57
2023/08/19 04:28:26;;;;;;;6.72;4.50;;;22.60;99.90;;;;;;5005635;28;20691;-60
2023/08/19 04:31:02;;;;;;;7.00;4.18;;;22.60;99.90;;;;;;5014068;28;20041;-59
2023/08/19 04:33:28;;;;;;;5.32;3.92;;;22.70;99.90;;;;;;5013774;28;20065;-60
2023/08/19 04:35:54;;;;;;;8.20;4.10;;;22.70;99.90;;;;;;5005039;28;20061;-59
2023/08/19 04:38:19;;;;;;;12.15;4.45;;;22.70;99.90;;;;;;5005798;28;20460;-59
2023/08/19 04:40:46;;;;;;;10.68;4.15;;;22.70;99.90;;;;;;5018148;28;20057;-60
2023/08/19 04:43:11;;;;;;;9.98;3.90;;;22.70;99.90;;;;;;5006530;28;20061;-57
2023/08/19 04:45:38;;;;;;;6.65;4.10;;;22.70;99.90;;;;;;5020796;28;20096;-58
2023/08/19 04:48:05;;;;;;;8.10;4.25;;;22.70;99.90;;;;;;5013400;28;20043;-58
2023/08/19 04:50:31;;;;;;;6.15;3.90;;;22.70;99.90;;;;;;5008036;28;20041;-58
2023/08/19 04:52:56;;;;;;;6.28;3.80;;;22.70;99.90;;;;;;5005953;28;20436;-59
2023/08/19 04:55:22;;;;;;;9.13;4.45;;;22.80;99.90;;;;;;5004225;28;20033;-59
2023/08/19 04:57:48;;;;;;;9.73;3.90;;;22.70;99.90;;;;;;5005550;28;20037;-59
2023/08/19 05:00:14;;;;;;;8.75;4.00;;;22.80;99.90;;;;;;5005533;28;20033;-58
2023/08/19 05:02:39;;;;;;;7.55;4.10;;;22.80;99.90;;;;;;5018314;28;20049;-58
2023/08/19 05:05:05;;;;;;;10.93;4.10;;;22.80;99.90;;;;;;5011019;28;20034;-58
2023/08/19 05:07:31;;;;;;;8.18;4.00;;;22.80;99.90;;;;;;5006145;28;20037;-60
2023/08/19 05:09:57;;;;;;;8.02;4.00;;;22.90;99.90;;;;;;5005777;28;20052;-59
2023/08/19 05:12:25;;;;;;;8.68;3.75;;;22.90;99.90;;;;;;5003963;28;20038;-57
2023/08/19 05:14:51;;;;;;;9.25;4.10;;;22.90;99.90;;;;;;5005534;28;20070;-56
2023/08/19 05:17:17;;;;;;;6.10;3.80;;;23.00;99.90;;;;;;5005019;28;20040;-56
2023/08/19 05:19:43;;;;;;;9.05;4.13;;;23.00;99.90;;;;;;5005493;28;20038;-56
2023/08/19 05:22:09;;;;;;;7.22;3.80;;;23.00;99.90;;;;;;5005298;28;20037;-58
2023/08/19 05:24:34;;;;;;;10.20;4.30;;;23.10;99.90;;;;;;5004694;28;20041;-58
2023/08/19 05:27:00;;;;;;;8.07;4.35;;;23.00;99.90;;;;;;5005663;28;20041;-56
2023/08/19 05:29:26;;;;;;;6.70;3.70;;;23.00;99.90;;;;;;5004989;28;20521;-58
2023/08/19 05:31:52;;;;;;;5.38;3.45;;;23.00;99.90;;;;;;5004689;28;20033;-58
2023/08/19 05:34:18;;;;;;;7.13;3.80;;;23.00;99.90;;;;;;5003814;28;20052;-57
2023/08/19 05:36:43;;;;;;;8.25;3.88;;;23.00;99.90;;;;;;5004072;28;20040;-58
2023/08/19 05:39:09;;;;;;;6.20;4.05;;;23.00;99.90;;;;;;5004472;28;20041;-57
2023/08/19 05:41:35;;;;;;;9.48;4.07;;;23.00;99.90;;;;;;5005408;28;20033;-58
2023/08/19 05:44:00;;;;;;;9.80;3.72;;;23.10;99.90;;;;;;5002642;28;20038;-58
2023/08/19 05:46:26;;;;;;;7.00;3.33;;;23.10;99.90;;;;;;5003031;28;20034;-58
2023/08/19 05:48:52;;;;;;;5.88;3.80;;;23.10;99.90;;;;;;5004857;28;20058;-58
2023/08/19 05:51:19;;;;;;;7.47;3.80;;;23.20;99.90;;;;;;5004909;28;20060;-57
2023/08/19 05:53:44;;;;;;;7.80;4.15;;;23.10;99.90;;;;;;5004720;28;20442;-58
2023/08/19 05:56:10;;;;;;;8.05;4.07;;;23.20;99.90;;;;;;5003520;28;20134;-59
2023/08/19 05:58:38;;;;;;;6.28;3.63;;;23.20;99.90;;;;;;5004357;28;20044;-58
2023/08/19 06:01:05;;;;;;;7.40;3.90;;;23.30;99.90;;;;;;5004220;28;20398;-59
2023/08/19 06:03:31;;;;;;;9.98;3.85;;;23.30;99.90;;;;;;5004794;28;20026;-58
2023/08/19 06:05:57;;;;;;;6.82;3.55;;;23.30;99.90;;;;;;5004751;28;20049;-58
2023/08/19 06:08:23;;;;;;;6.72;3.63;;;23.30;99.90;;;;;;5003959;28;20038;-59
2023/08/19 06:11:01;;;;;;;7.88;4.05;;;23.30;99.90;;;;;;5004925;28;20037;-58
2023/08/19 06:13:27;;;;;;;7.60;3.60;;;23.40;99.90;;;;;;5004741;28;20077;-60
2023/08/19 06:15:54;;;;;;;5.22;3.90;;;23.30;99.90;;;;;;5004882;28;20089;-59
2023/08/19 06:18:19;;;;;;;7.75;3.63;;;23.40;99.90;;;;;;5003585;28;20033;-59
2023/08/19 06:20:45;;;;;;;7.20;3.45;;;23.50;99.90;;;;;;5002996;28;20026;-59
2023/08/19 06:23:10;;;;;;;4.95;3.40;;;23.50;99.90;;;;;;5004234;28;20026;-59
2023/08/19 06:25:36;;;;;;;12.07;3.67;;;23.50;99.90;;;;;;5004725;28;20297;-56
2023/08/19 06:28:01;;;;;;;5.35;3.30;;;23.50;99.90;;;;;;5004589;28;20037;-57
2023/08/19 06:30:27;;;;;;;7.97;3.97;;;23.60;99.90;;;;;;5004046;28;20038;-58
2023/08/19 06:32:53;;;;;;;8.40;3.83;;;23.50;99.90;;;;;;5004338;28;20066;-57
2023/08/19 06:35:19;;;;;;;8.23;4.07;;;23.60;99.90;;;;;;5003721;28;20045;-58
2023/08/19 06:37:49;;;;;;;4.97;3.78;;;23.60;99.90;;;;;;5004657;28;20049;-58
2023/08/19 06:40:19;;;;;;;6.75;3.65;;;23.60;99.90;;;;;;5002909;28;20042;-58
2023/08/19 06:42:45;;;;;;;7.35;3.75;;;23.60;99.90;;;;;;5005967;28;21474;-58
2023/08/19 06:45:14;;;;;;;6.95;3.70;;;23.60;99.90;;;;;;5002733;28;20482;-58
2023/08/19 06:47:42;;;;;;;7.78;3.83;;;23.50;99.90;;;;;;5003958;28;20038;-58
2023/08/19 06:50:08;;;;;;;7.57;3.97;;;23.70;99.90;;;;;;5004042;28;20594;-57
2023/08/19 06:52:34;;;;;;;6.55;3.88;;;23.70;99.90;;;;;;5003907;28;20037;-59
2023/08/19 06:55:00;;;;;;;11.98;4.45;;;23.70;99.90;;;;;;5001025;28;20510;-58
2023/08/19 06:57:31;;;;;;;7.28;3.83;;;23.70;99.90;;;;;;4992764;28;20038;-57
2023/08/19 07:00:05;;;;;;;9.18;3.80;;;23.70;99.90;;;;;;5002719;28;20030;-58
2023/08/19 07:02:35;;;;;;;5.95;3.80;;;23.80;99.90;;;;;;5007291;28;20064;-58
2023/08/19 07:05:03;;;;;;;8.05;4.05;;;23.80;99.90;;;;;;4996454;28;20035;-58
2023/08/19 07:07:29;;;;;;;6.93;4.05;;;23.70;99.90;;;;;;5010774;28;20041;-58
2023/08/19 07:09:55;;;;;;;11.40;3.70;;;23.80;99.90;;;;;;5005036;28;20092;-58
2023/08/19 07:12:21;;;;;;;8.90;4.00;;;23.80;99.90;;;;;;5004522;28;20030;-57
2023/08/19 07:14:47;;;;;;;7.10;3.80;;;23.80;99.90;;;;;;5005075;28;20382;-58
2023/08/19 07:17:18;;;;;;;7.10;3.90;;;23.90;99.90;;;;;;5007319;28;20129;-58
2023/08/19 07:19:44;;;;;;;6.50;3.85;;;23.90;99.90;;;;;;5005272;28;20034;-58
2023/08/19 07:22:10;;;;;;;8.07;3.75;;;23.90;99.90;;;;;;5005262;28;20033;-58
2023/08/19 07:24:36;;;;;;;7.65;4.28;;;23.90;99.90;;;;;;5006627;28;20038;-59
2023/08/19 07:27:06;;;;;;;7.75;3.97;;;23.90;99.90;;;;;;5003339;28;20037;-58
2023/08/19 07:29:32;;;;;;;8.82;4.10;;;24.00;99.90;;;;;;5005383;28;20088;-58
2023/08/19 07:31:59;;;;;;;12.60;4.20;;;24.00;99.90;;;;;;5016515;28;20401;-57
2023/08/19 07:34:24;;;;;;;8.27;3.60;;;24.00;99.90;;;;;;5008067;28;20096;-58
2023/08/19 07:36:50;;;;;;;10.13;4.40;;;24.10;99.90;;;;;;5004030;28;20042;-58
2023/08/19 07:39:16;;;;;;;6.47;3.95;;;24.20;99.90;;;;;;5002302;28;20124;-57
2023/08/19 07:41:42;;;;;;;6.88;3.50;;;24.20;99.90;;;;;;5005533;28;20353;-59
2023/08/19 07:44:07;;;;;;;6.78;3.55;;;24.20;99.90;;;;;;5001056;28;20030;-56
2023/08/19 07:46:33;;;;;;;7.72;3.63;;;24.30;99.90;;;;;;5003067;28;20047;-58
2023/08/19 07:48:59;;;;;;;9.43;3.92;;;24.40;99.90;;;;;;5010073;28;20073;-59
2023/08/19 07:51:25;;;;;;;7.75;3.92;;;24.50;99.90;;;;;;5005226;28;20041;-58
2023/08/19 07:53:50;;;;;;;7.75;4.00;;;24.50;99.90;;;;;;5006966;28;20326;-58
2023/08/19 07:56:17;;;;;;;8.90;3.63;;;24.60;99.90;;;;;;5007163;28;20041;-57
2023/08/19 07:58:43;;;;;;;11.55;3.75;;;24.70;99.90;;;;;;5031448;28;20478;-58
2023/08/19 08:01:10;;;;;;;7.28;3.60;;;24.70;99.90;;;;;;5014692;28;20029;-58
2023/08/19 08:03:38;;;;;;;8.43;3.67;;;24.70;99.90;;;;;;5004689;28;20537;-59
2023/08/19 08:06:04;;;;;;;6.72;3.78;;;24.70;99.90;;;;;;5003695;28;20514;-58
2023/08/19 08:08:29;;;;;;;9.07;3.85;;;24.70;99.90;;;;;;5004113;28;20176;-59
2023/08/19 08:10:55;;;;;;;6.40;3.70;;;24.80;99.90;;;;;;5001810;28;20064;-59
2023/08/19 08:13:21;;;;;;;6.13;3.65;;;24.80;99.90;;;;;;5006330;28;20425;-59
2023/08/19 08:15:47;;;;;;;8.55;3.72;;;24.80;99.90;;;;;;5004803;28;20084;-59
2023/08/19 08:18:12;;;;;;;5.50;3.80;;;24.90;99.90;;;;;;5003682;28;20433;-58
2023/08/19 08:20:38;;;;;;;5.43;3.60;;;24.90;99.90;;;;;;5003012;28;20034;-58
2023/08/19 08:23:03;;;;;;;6.03;4.10;;;24.90;99.90;;;;;;5005321;28;20048;-58
2023/08/19 08:25:29;;;;;;;8.07;3.90;;;24.90;99.90;;;;;;5010121;28;20037;-59
2023/08/19 08:27:55;;;;;;;5.55;3.65;;;24.90;99.90;;;;;;5011354;28;20037;-59
2023/08/19 08:30:21;;;;;;;7.38;3.38;;;25.00;99.90;;;;;;5005309;28;20034;-59
2023/08/19 08:32:47;;;;;;;9.82;4.28;;;25.00;99.90;;;;;;5006109;28;20038;-59
2023/08/19 08:35:13;;;;;;;9.32;3.85;;;25.10;99.90;;;;;;5005562;28;20041;-59
2023/08/19 08:37:38;;;;;;;8.00;3.78;;;25.10;99.90;;;;;;5006569;28;20029;-59
2023/08/19 08:40:04;;;;;;;9.70;3.92;;;25.10;99.90;;;;;;5005011;28;20072;-58
2023/08/19 08:42:31;;;;;;;7.03;3.60;;;25.20;99.90;;;;;;5005560;28;20564;-59
2023/08/19 08:44:58;;;;;;;8.65;3.67;;;25.20;99.90;;;;;;5015229;28;20489;-59
2023/08/19 08:47:26;;;;;;;9.10;4.03;;;25.30;99.90;;;;;;5004814;28;20048;-58
2023/08/19 08:49:53;;;;;;;9.52;3.70;;;25.30;99.90;;;;;;5012609;28;20038;-56
2023/08/19 08:52:20;;;;;;;6.05;3.60;;;25.40;99.90;;;;;;5003395;28;20034;-57
2023/08/19 08:54:51;;;;;;;8.18;3.80;;;25.50;99.90;;;;;;5003461;28;20465;-58
2023/08/19 08:57:16;;;;;;;9.60;4.00;;;25.60;99.90;;;;;;5002979;28;20033;-57
2023/08/19 08:59:43;;;;;;;6.20;3.88;;;25.60;99.90;;;;;;5006098;28;20034;-57
2023/08/19 09:02:11;;;;;;;7.63;3.80;;;25.70;99.90;;;;;;5004209;28;20053;-58
2023/08/19 09:04:38;;;;;;;9.60;4.05;;;25.80;99.90;;;;;;5004160;28;20492;-61
2023/08/19 09:07:09;;;;;;;9.52;4.40;;;25.80;99.90;;;;;;5012387;28;20030;-58
2023/08/19 09:09:37;;;;;;;7.90;4.05;;;25.90;99.90;;;;;;5004053;28;20049;-58
2023/08/19 09:12:08;;;;;;;9.70;4.55;;;26.00;99.90;;;;;;5012838;28;20083;-59
2023/08/19 09:14:46;;;;;;;11.10;5.00;;;26.10;99.90;;;;;;4993504;28;20124;-59
2023/08/19 09:17:14;;;;;;;7.28;3.80;;;26.30;99.90;;;;;;4990741;28;20038;-58
2023/08/19 09:19:40;;;;;;;11.05;4.47;;;26.30;99.90;;;;;;5002765;28;20484;-59
2023/08/19 09:22:15;;;;;;;9.27;4.28;;;26.30;99.90;;;;;;5004291;28;20033;-58
2023/08/19 09:24:40;;;;;;;7.30;4.50;;;26.40;99.90;;;;;;5001670;28;20042;-59
2023/08/19 09:27:06;;;;;;;7.22;4.60;;;26.50;99.90;;;;;;5002016;28;20037;-59
2023/08/19 09:29:35;;;;;;;15.07;5.20;;;26.60;99.90;;;;;;5001859;28;20042;-57
2023/08/19 09:32:01;;;;;;;8.20;4.40;;;26.70;99.90;;;;;;5003592;28;20030;-58
2023/08/19 09:34:27;;;;;;;8.85;4.30;;;26.70;99.90;;;;;;5003043;28;20030;-59
2023/08/19 09:36:56;;;;;;;9.43;4.35;;;26.80;99.90;;;;;;4999577;28;20036;-57
2023/08/19 09:39:25;;;;;;;9.65;4.10;;;26.80;99.90;;;;;;5003567;28;20564;-59
2023/08/19 09:41:57;;;;;;;6.50;4.20;;;26.90;99.90;;;;;;5004510;28;20032;-58
2023/08/19 09:44:26;;;;;;;5.95;4.30;;;26.90;99.90;;;;;;5016988;28;20061;-59
2023/08/19 09:46:55;;;;;;;11.05;4.85;;;26.90;99.90;;;;;;5001941;28;20669;-59
2023/08/19 09:49:24;;;;;;;9.63;4.20;;;27.00;99.90;;;;;;5005206;28;20581;-59
2023/08/19 09:51:54;;;;;;;8.93;4.50;;;27.10;99.90;;;;;;5004380;28;20049;-58
2023/08/19 09:54:21;;;;;;;9.45;4.40;;;27.10;99.90;;;;;;5001857;28;20048;-58
2023/08/19 09:56:55;;;;;;;10.02;4.75;;;27.10;99.90;;;;;;4996611;28;20100;-58
2023/08/19 09:59:23;;;;;;;8.98;4.90;;;27.10;99.90;;;;;;4998017;28;20046;-60
2023/08/19 10:01:50;;;;;;;8.10;4.97;;;27.00;99.90;;;;;;5001417;28;20034;-57
2023/08/19 10:04:16;;;;;;;8.70;5.45;;;26.90;99.90;;;;;;5002654;28;20504;-59
2023/08/19 10:06:48;;;;;;;11.05;5.40;;;27.00;99.90;;;;;;5003312;28;20225;-57
2023/08/19 10:09:17;;;;;;;8.90;5.20;;;26.90;99.90;;;;;;5001469;28;20402;-58
2023/08/19 10:11:45;;;;;;;7.68;5.05;;;26.90;99.90;;;;;;5003352;28;20109;-57
2023/08/19 10:14:12;;;;;;;7.10;5.05;;;26.80;99.90;;;;;;5002540;28;20026;-58
2023/08/19 10:16:46;;;;;;;8.55;4.93;;;26.90;99.90;;;;;;5004272;28;20041;-59
2023/08/19 10:19:16;;;;;;;6.30;4.72;;;26.90;99.90;;;;;;5019400;28;20034;-58
2023/08/19 10:21:44;;;;;;;11.88;5.30;;;26.80;99.90;;;;;;5002793;28;20128;-57
2023/08/19 10:24:10;;;;;;;35.55;31.75;;;26.90;99.90;;;;;;5000359;28;20088;-58
2023/08/19 10:26:36;;;;;;;12.70;8.38;;;27.10;99.90;;;;;;5002782;28;20050;-55
2023/08/19 10:29:07;;;;;;;10.50;5.18;;;27.20;99.90;;;;;;5000402;28;20034;-55
2023/08/19 10:31:34;;;;;;;10.18;5.32;;;27.40;99.90;;;;;;5002158;28;20576;-56
2023/08/19 10:34:09;;;;;;;9.95;6.03;;;27.40;99.90;;;;;;5003351;28;20109;-55
2023/08/19 10:36:34;;;;;;;14.43;5.75;;;27.40;99.90;;;;;;5012289;28;20034;-56
2023/08/19 10:39:00;;;;;;;14.43;6.03;;;27.50;99.90;;;;;;4998314;28;20049;-56
2023/08/19 10:41:30;;;;;;;14.73;6.20;;;27.40;99.90;;;;;;5003786;28;20711;-54
2023/08/19 10:44:03;;;;;;;19.63;9.35;;;27.40;99.90;;;;;;5003873;28;20026;-56
2023/08/19 10:46:36;;;;;;;13.45;6.50;;;27.40;99.90;;;;;;5009132;28;20038;-55
2023/08/19 10:49:04;;;;;;;11.63;6.93;;;27.50;99.90;;;;;;5003301;28;20031;-56
2023/08/19 10:51:51;;;;;;;10.60;7.03;;;27.50;99.90;;;;;;5006753;28;20041;-56
2023/08/19 10:54:38;;;;;;;12.52;7.03;;;27.50;99.90;;;;;;5003161;28;20034;-56
2023/08/19 10:57:18;;;;;;;12.20;7.07;;;27.40;99.90;;;;;;5005238;28;20026;-57
2023/08/19 10:59:49;;;;;;;13.98;7.53;;;27.50;99.90;;;;;;5006272;28;20032;-56
2023/08/19 11:02:15;;;;;;;18.88;8.93;;;27.40;99.90;;;;;;5006638;28;20060;-55
2023/08/19 11:04:47;;;;;;;11.40;8.25;;;27.20;99.90;;;;;;5005239;28;20052;-54
2023/08/19 11:07:13;;;;;;;11.70;8.55;;;27.20;99.90;;;;;;5013385;28;20033;-56
2023/08/19 11:09:44;;;;;;;13.32;8.38;;;27.10;99.90;;;;;;4999974;28;20553;-56
2023/08/19 11:12:19;;;;;;;15.75;8.95;;;27.10;99.90;;;;;;5014016;28;20030;-56
2023/08/19 11:14:50;;;;;;;11.38;7.90;;;27.10;99.90;;;;;;5014727;28;20053;-56
2023/08/19 11:17:17;;;;;;;11.82;8.52;;;27.10;99.90;;;;;;5021643;28;20033;-56
2023/08/19 11:19:43;;;;;;;24.30;17.95;;;27.10;99.90;;;;;;5028185;28;20038;-57
2023/08/19 11:22:14;;;;;;;27.63;19.30;;;27.00;99.90;;;;;;5024147;28;20026;-57
2023/08/19 11:24:40;;;;;;;27.67;19.33;;;27.20;99.90;;;;;;5003952;28;20398;-56
2023/08/19 11:27:07;;;;;;;23.02;16.77;;;27.10;99.90;;;;;;5015280;28;20033;-57
2023/08/19 11:29:36;;;;;;;16.70;11.05;;;27.10;99.90;;;;;;5007862;28;20038;-58
2023/08/19 11:32:01;;;;;;;14.30;10.23;;;27.10;99.90;;;;;;5008090;28;20116;-56
2023/08/19 11:34:29;;;;;;;12.93;8.18;;;27.10;99.90;;;;;;5005166;28;20117;-56
2023/08/19 11:36:54;;;;;;;17.23;12.02;;;27.00;99.90;;;;;;5006140;28;20513;-57
2023/08/19 11:39:20;;;;;;;10.80;8.70;;;26.90;99.90;;;;;;5015758;28;20034;-56
2023/08/19 11:41:47;;;;;;;19.77;13.40;;;26.90;99.90;;;;;;5010294;28;20068;-57
2023/08/19 11:44:13;;;;;;;13.38;8.90;;;26.90;99.90;;;;;;5007646;28;20049;-56
2023/08/19 11:46:38;;;;;;;12.63;8.63;;;26.90;99.90;;;;;;4994146;28;20149;-57
2023/08/19 11:49:09;;;;;;;13.82;8.40;;;26.80;99.90;;;;;;5003918;28;20037;-56
2023/08/19 11:51:39;;;;;;;13.07;8.68;;;26.70;99.90;;;;;;5001968;28;20505;-57
2023/08/19 11:54:08;;;;;;;12.57;8.95;;;26.70;99.90;;;;;;5007817;28;20030;-55
2023/08/19 11:57:04;;;;;;;13.00;9.70;;;26.70;99.90;;;;;;5027742;28;20026;-57
2023/08/19 11:59:34;;;;;;;11.52;9.55;;;26.60;99.90;;;;;;5023668;28;20034;-57
2023/08/19 12:02:08;;;;;;;15.30;10.35;;;26.50;99.90;;;;;;4999807;28;20231;-55
2023/08/19 12:04:34;;;;;;;12.32;9.50;;;26.50;99.90;;;;;;5014506;28;20512;-56
2023/08/19 12:07:09;;;;;;;13.07;9.85;;;26.50;99.90;;;;;;5019278;28;20026;-57
2023/08/19 12:09:38;;;;;;;12.15;9.90;;;26.40;99.90;;;;;;5019015;28;20037;-57
2023/08/19 12:12:09;;;;;;;15.02;10.25;;;26.30;99.90;;;;;;5024624;28;20036;-56
2023/08/19 12:14:35;;;;;;;15.20;10.25;;;26.40;99.90;;;;;;5011575;28;20087;-57
2023/08/19 12:17:00;;;;;;;14.02;10.63;;;26.40;99.90;;;;;;5027151;28;20037;-56
2023/08/19 12:19:26;;;;;;;15.70;11.10;;;26.50;99.90;;;;;;5015121;28;20360;-57
2023/08/19 12:21:51;;;;;;;17.05;11.32;;;26.50;99.90;;;;;;5010657;28;20030;-57
2023/08/19 12:24:17;;;;;;;12.98;10.23;;;26.50;99.90;;;;;;5007105;28;20124;-57
2023/08/19 12:26:42;;;;;;;14.65;11.35;;;26.50;99.90;;;;;;5007089;28;20042;-57
2023/08/19 12:29:08;;;;;;;16.75;12.45;;;26.50;99.90;;;;;;5016016;28;20040;-57
2023/08/19 12:31:34;;;;;;;13.50;11.02;;;26.60;99.90;;;;;;5011556;28;20026;-56
2023/08/19 12:34:00;;;;;;;12.52;10.90;;;26.50;99.90;;;;;;5014003;28;20040;-57
2023/08/19 12:36:25;;;;;;;18.23;11.30;;;26.50;99.90;;;;;;5024837;28;20033;-56
2023/08/19 12:38:51;;;;;;;17.08;12.05;;;26.40;99.90;;;;;;5019615;28;20058;-56
2023/08/19 12:41:16;;;;;;;13.18;11.70;;;26.30;99.90;;;;;;5006817;28;20536;-57
2023/08/19 12:43:42;;;;;;;13.18;11.25;;;26.30;99.90;;;;;;5011568;28;20385;-58